Time;durP1;ratioP1;P1;durP2;ratioP2;P2;SDS_P1;SDS_P2;PMS_P1;PMS_P2;Temp;Humidity;BMP_temperature;BMP_pressure;BME280_temperature;BME280_humidity;BME280_pressure;Samples;Min_cycle;Max_cycle;Signal;HPM_P1;HPM_P2
2023/01/20 00:02:08;;;;;;;12.57;11.37;;;3.80;98.60;;;;;;10606328;28;20202;-81
2023/01/20 00:07:12;;;;;;;12.63;11.43;;;3.90;98.20;;;;;;10584806;28;20218;-81
2023/01/20 00:12:14;;;;;;;14.77;9.83;;;3.90;98.00;;;;;;10589947;28;20225;-80
2023/01/20 00:17:16;;;;;;;11.93;10.73;;;3.80;98.70;;;;;;10601434;28;20229;-79
2023/01/20 00:22:20;;;;;;;12.53;11.23;;;3.90;99.00;;;;;;10588398;28;20222;-80
2023/01/20 00:27:22;;;;;;;11.60;10.60;;;3.90;98.90;;;;;;10560845;28;20199;-80
2023/01/20 00:32:24;;;;;;;13.50;12.20;;;3.90;98.70;;;;;;10599835;27;20210;-80
2023/01/20 00:37:28;;;;;;;12.70;11.50;;;4.00;99.10;;;;;;10637003;27;20287;-80
2023/01/20 00:42:30;;;;;;;14.43;13.00;;;4.00;99.80;;;;;;10612092;27;20190;-80
2023/01/20 00:47:32;;;;;;;12.93;11.63;;;4.10;99.00;;;;;;10584421;28;20610;-79
2023/01/20 00:52:35;;;;;;;13.43;11.33;;;4.20;99.50;;;;;;10626087;27;20214;-79
2023/01/20 00:57:37;;;;;;;12.10;11.00;;;4.20;99.00;;;;;;10624626;27;20211;-79
2023/01/20 01:02:39;;;;;;;13.67;12.10;;;4.20;99.20;;;;;;10630449;27;20206;-79
2023/01/20 01:07:42;;;;;;;11.57;10.47;;;4.20;99.00;;;;;;10611684;27;20199;-79
2023/01/20 01:12:44;;;;;;;13.33;11.93;;;4.20;99.70;;;;;;10591717;27;20271;-81
2023/01/20 01:17:47;;;;;;;14.27;12.27;;;4.20;98.70;;;;;;10626760;27;20749;-80
2023/01/20 01:22:50;;;;;;;14.87;12.47;;;4.10;99.20;;;;;;10584015;28;20308;-79
2023/01/20 01:27:52;;;;;;;11.37;10.30;;;4.10;99.00;;;;;;10621766;27;20205;-80
2023/01/20 01:32:54;;;;;;;13.53;12.10;;;4.10;99.30;;;;;;10590437;27;20570;-80
2023/01/20 01:37:58;;;;;;;13.13;11.70;;;4.10;98.60;;;;;;10581289;28;20252;-80
2023/01/20 01:43:00;;;;;;;13.90;12.60;;;4.10;98.40;;;;;;10610387;27;20607;-80
2023/01/20 01:48:07;;;;;;;13.37;12.10;;;4.00;98.40;;;;;;10568928;28;20204;-80
2023/01/20 01:53:11;;;;;;;21.47;17.50;;;4.00;98.50;;;;;;10643882;22;20241;-86
2023/01/20 01:58:17;;;;;;;13.07;11.87;;;3.90;99.40;;;;;;10559032;28;20223;-85
2023/01/20 02:03:20;;;;;;;12.33;11.23;;;3.90;99.00;;;;;;10514976;28;20745;-83
2023/01/20 02:08:24;;;;;;;13.87;12.40;;;3.90;98.40;;;;;;10536251;28;20320;-84
2023/01/20 02:13:27;;;;;;;54.83;36.20;;;3.80;99.30;;;;;;10483193;28;20243;-82
2023/01/20 02:18:44;;;;;;;13.90;12.47;;;3.80;99.00;;;;;;10525303;28;20215;-82
2023/01/20 02:24:16;;;;;;;11.23;10.27;;;3.90;99.70;;;;;;10475907;28;20216;-82
2023/01/20 02:29:50;;;;;;;13.90;12.33;;;3.90;99.90;;;;;;10494978;28;20200;-85
2023/01/20 02:34:58;;;;;;;12.40;11.20;;;4.00;99.80;;;;;;10504777;28;20313;-82
2023/01/20 02:40:15;;;;;;;11.87;10.80;;;4.10;99.90;;;;;;10483174;28;20262;-85
2023/01/20 02:45:22;;;;;;;13.80;12.50;;;4.10;99.90;;;;;;10496733;28;20237;-84
2023/01/20 02:50:31;;;;;;;12.97;11.90;;;4.10;99.90;;;;;;10525805;28;20540;-81
2023/01/20 02:55:38;;;;;;;13.40;12.17;;;4.10;99.90;;;;;;10514021;28;20253;-83
2023/01/20 03:00:44;;;;;;;13.83;12.67;;;4.10;99.90;;;;;;10516929;28;20599;-84
2023/01/20 03:05:52;;;;;;;14.33;12.97;;;4.10;99.90;;;;;;10496437;28;20219;-84
2023/01/20 03:10:56;;;;;;;14.10;12.80;;;4.00;99.90;;;;;;10549035;28;20196;-84
2023/01/20 03:16:01;;;;;;;14.20;12.80;;;4.00;99.90;;;;;;10510586;28;20284;-85
2023/01/20 03:21:06;;;;;;;14.57;13.27;;;4.00;99.90;;;;;;10520125;28;20299;-86
2023/01/20 03:26:11;;;;;;;14.67;13.27;;;4.00;99.90;;;;;;10507343;28;20607;-83
2023/01/20 03:31:17;;;;;;;13.90;12.67;;;4.00;99.90;;;;;;10485758;28;20189;-85
2023/01/20 03:36:23;;;;;;;14.37;13.17;;;4.00;99.90;;;;;;10517031;28;20219;-85
2023/01/20 03:41:35;;;;;;;13.80;12.60;;;4.20;99.90;;;;;;10527500;28;20307;-85
2023/01/20 03:46:45;;;;;;;13.07;12.03;;;4.30;99.90;;;;;;10471737;28;20224;-82
2023/01/20 03:52:02;;;;;;;12.67;11.57;;;4.30;99.90;;;;;;10517897;28;20193;-83
2023/01/20 03:57:09;;;;;;;12.53;11.43;;;4.30;99.90;;;;;;10488128;28;20239;-84
2023/01/20 04:02:12;;;;;;;11.57;10.57;;;4.30;99.90;;;;;;10515982;28;20563;-84
2023/01/20 04:07:20;;;;;;;10.93;9.98;;;4.40;99.90;;;;;;10524795;28;20222;-84
2023/01/20 04:12:22;;;;;;;11.97;10.93;;;4.60;99.90;;;;;;10515775;28;20659;-84
2023/01/20 04:17:27;;;;;;;10.67;9.67;;;4.70;99.90;;;;;;10541699;28;20212;-82
2023/01/20 04:22:36;;;;;;;11.73;10.57;;;4.60;99.90;;;;;;10518961;28;20644;-85
2023/01/20 04:27:38;;;;;;;11.70;10.60;;;4.60;99.90;;;;;;10510193;28;20205;-85
2023/01/20 04:32:40;;;;;;;12.23;11.10;;;4.60;99.90;;;;;;10551204;28;20606;-84
2023/01/20 04:37:44;;;;;;;11.33;10.33;;;4.50;99.90;;;;;;10523777;28;20242;-84
2023/01/20 04:42:46;;;;;;;11.50;10.50;;;4.50;99.90;;;;;;10520411;28;20554;-84
2023/01/20 04:47:48;;;;;;;11.47;10.47;;;4.50;99.90;;;;;;10501855;28;20279;-84
2023/01/20 04:52:54;;;;;;;10.80;9.85;;;4.40;99.90;;;;;;10524976;28;20679;-85
2023/01/20 04:57:56;;;;;;;9.77;8.80;;;4.60;99.90;;;;;;10517190;28;20219;-83
2023/01/20 05:02:59;;;;;;;10.77;9.87;;;4.60;99.90;;;;;;10539961;28;20224;-85
2023/01/20 05:08:03;;;;;;;11.60;10.57;;;4.60;99.90;;;;;;10515862;28;20212;-85
2023/01/20 05:13:05;;;;;;;12.00;10.83;;;4.60;99.90;;;;;;10520869;28;20219;-85
2023/01/20 05:18:08;;;;;;;13.63;12.00;;;4.50;99.20;;;;;;10562391;28;20240;-85
2023/01/20 05:23:11;;;;;;;10.90;9.90;;;4.60;99.40;;;;;;10480664;28;20212;-85
2023/01/20 05:28:13;;;;;;;9.77;8.97;;;4.70;99.90;;;;;;10504835;28;20200;-84
2023/01/20 05:33:15;;;;;;;10.80;9.77;;;4.70;99.50;;;;;;10511429;28;20220;-85
2023/01/20 05:38:19;;;;;;;12.40;10.87;;;4.60;99.50;;;;;;10498345;28;20270;-85
2023/01/20 05:43:21;;;;;;;11.43;10.23;;;4.60;99.20;;;;;;10489486;28;20242;-85
2023/01/20 05:48:23;;;;;;;10.30;9.40;;;4.50;99.00;;;;;;10525268;28;20200;-85
2023/01/20 05:53:27;;;;;;;12.02;9.95;;;4.50;99.40;;;;;;10505056;28;20285;-85
2023/01/20 05:58:29;;;;;;;10.03;9.13;;;4.60;99.40;;;;;;10506469;28;20588;-84
2023/01/20 06:03:31;;;;;;;11.70;10.60;;;4.70;98.80;;;;;;10544169;28;20236;-81
2023/01/20 06:08:35;;;;;;;10.70;9.60;;;4.60;99.20;;;;;;10539620;28;20296;-81
2023/01/20 06:13:38;;;;;;;11.20;10.20;;;4.50;99.00;;;;;;10488366;28;20319;-81
2023/01/20 06:18:40;;;;;;;11.20;10.20;;;4.50;99.10;;;;;;10540453;28;20200;-80
2023/01/20 06:23:44;;;;;;;11.27;10.37;;;4.50;99.90;;;;;;10504905;28;20267;-81
2023/01/20 06:28:46;;;;;;;10.37;9.57;;;4.50;99.90;;;;;;10538911;28;20203;-80
2023/01/20 06:33:48;;;;;;;15.80;14.18;;;4.50;99.40;;;;;;10501536;28;20753;-80
2023/01/20 06:38:51;;;;;;;12.88;11.65;;;4.70;99.30;;;;;;10532927;28;20265;-80
2023/01/20 06:43:53;;;;;;;10.87;9.83;;;4.80;99.30;;;;;;10519998;28;20698;-80
2023/01/20 06:48:59;;;;;;;11.20;10.10;;;4.80;98.70;;;;;;10501517;28;20316;-81
2023/01/20 06:54:02;;;;;;;12.80;11.60;;;4.70;99.10;;;;;;10519549;28;20224;-81
2023/01/20 06:59:04;;;;;;;13.77;12.35;;;4.70;99.30;;;;;;10537411;28;20243;-79
2023/01/20 07:04:07;;;;;;;12.43;11.33;;;4.80;99.10;;;;;;10503873;28;20220;-79
2023/01/20 07:09:11;;;;;;;12.10;10.90;;;4.80;99.00;;;;;;10521578;28;20253;-78
2023/01/20 07:14:13;;;;;;;13.30;11.90;;;4.70;99.50;;;;;;10500823;28;20258;-79
2023/01/20 07:19:16;;;;;;;12.87;11.67;;;4.70;99.40;;;;;;10527721;28;20294;-78
2023/01/20 07:24:19;;;;;;;13.63;11.03;;;4.70;99.30;;;;;;10502093;28;20234;-79
2023/01/20 07:29:21;;;;;;;13.30;11.97;;;4.70;99.70;;;;;;10498933;28;20717;-81
2023/01/20 07:34:23;;;;;;;14.00;12.60;;;4.70;99.50;;;;;;10520007;28;20228;-80
2023/01/20 07:39:28;;;;;;;12.77;11.57;;;4.70;99.40;;;;;;10511488;28;20717;-80
2023/01/20 07:44:30;;;;;;;12.10;10.90;;;4.70;98.80;;;;;;10471980;28;20239;-82
2023/01/20 07:49:32;;;;;;;13.23;12.03;;;4.60;98.70;;;;;;10546178;28;20192;-82
2023/01/20 07:54:35;;;;;;;12.77;11.67;;;4.60;99.00;;;;;;10575406;22;20317;-82
2023/01/20 07:59:38;;;;;;;12.60;11.30;;;4.60;98.80;;;;;;10609995;27;20267;-81
2023/01/20 08:04:40;;;;;;;13.60;12.40;;;4.60;99.40;;;;;;10607703;27;20229;-81
2023/01/20 08:09:43;;;;;;;12.23;11.03;;;4.70;99.60;;;;;;10624611;27;20187;-81
2023/01/20 08:14:46;;;;;;;13.40;12.10;;;4.80;99.20;;;;;;10625605;27;20768;-80
2023/01/20 08:19:48;;;;;;;12.90;11.67;;;4.90;99.40;;;;;;10624393;27;20268;-82
2023/01/20 08:24:52;;;;;;;13.07;11.87;;;4.90;99.30;;;;;;10608197;27;20653;-80
2023/01/20 08:29:54;;;;;;;13.10;11.77;;;5.00;98.20;;;;;;10603858;27;20187;-79
2023/01/20 08:34:56;;;;;;;12.60;11.47;;;4.90;98.50;;;;;;10601246;27;20219;-79
2023/01/20 08:40:00;;;;;;;12.53;11.23;;;4.90;98.90;;;;;;10603346;27;20685;-80
2023/01/20 08:45:03;;;;;;;12.63;11.43;;;4.90;98.50;;;;;;10609562;27;20214;-80
2023/01/20 08:50:07;;;;;;;11.70;10.23;;;4.90;98.90;;;;;;10601554;27;20211;-79
2023/01/20 08:55:11;;;;;;;13.07;11.67;;;5.00;99.00;;;;;;10616257;27;20223;-79
2023/01/20 09:00:14;;;;;;;10.40;9.37;;;5.10;98.00;;;;;;10593605;28;20211;-79
2023/01/20 09:05:16;;;;;;;9.73;8.80;;;5.20;97.40;;;;;;10593451;28;20219;-79
2023/01/20 09:10:20;;;;;;;13.13;10.57;;;5.20;97.70;;;;;;10556127;28;20251;-78
2023/01/20 09:15:22;;;;;;;11.60;10.50;;;5.10;98.70;;;;;;10585483;28;20222;-79
2023/01/20 09:20:24;;;;;;;11.47;10.33;;;5.10;98.70;;;;;;10592396;28;20219;-79
2023/01/20 09:25:28;;;;;;;11.25;9.60;;;5.00;98.30;;;;;;10587679;28;20293;-80
2023/01/20 09:30:30;;;;;;;10.13;9.23;;;5.10;97.50;;;;;;10555999;28;20195;-79
2023/01/20 09:35:33;;;;;;;11.03;9.97;;;5.10;97.40;;;;;;10555335;28;20306;-79
2023/01/20 09:46:10;;;;;;;10.93;9.93;;;5.00;98.10;;;;;;10589042;28;20224;-79
2023/01/20 09:56:47;;;;;;;12.07;10.97;;;5.10;97.20;;;;;;10562242;28;20225;-79
2023/01/20 10:01:54;;;;;;;11.80;10.77;;;5.10;97.60;;;;;;10571461;28;20232;-79
2023/01/20 10:07:03;;;;;;;10.82;9.82;;;5.00;97.90;;;;;;10555742;28;20226;-80
2023/01/20 10:12:11;;;;;;;11.77;10.70;;;5.00;96.80;;;;;;10530646;28;20195;-80
2023/01/20 10:17:16;;;;;;;12.30;11.10;;;5.00;97.20;;;;;;10542990;28;20224;-77
2023/01/20 10:22:22;;;;;;;14.50;10.47;;;4.90;97.50;;;;;;10551441;28;20303;-80
2023/01/20 10:27:29;;;;;;;11.18;10.18;;;4.90;97.50;;;;;;10559423;28;20222;-79
2023/01/20 10:32:35;;;;;;;11.77;10.67;;;5.00;97.50;;;;;;10553454;28;20197;-80
2023/01/20 10:37:37;;;;;;;14.03;11.70;;;5.00;97.40;;;;;;10572429;28;20223;-80
2023/01/20 10:42:43;;;;;;;11.80;10.70;;;4.90;97.80;;;;;;10554509;28;20695;-80
2023/01/20 10:47:58;;;;;;;13.00;11.70;;;4.80;97.00;;;;;;10570345;28;20646;-80
2023/01/20 10:53:15;;;;;;;12.50;11.40;;;4.80;97.70;;;;;;10548555;28;20260;-79
2023/01/20 10:58:24;;;;;;;11.50;10.30;;;4.70;97.50;;;;;;10625459;27;20220;-79
2023/01/20 11:03:27;;;;;;;11.87;10.77;;;4.70;97.80;;;;;;10590072;27;20214;-80
2023/01/20 11:08:31;;;;;;;10.20;9.20;;;4.70;97.90;;;;;;10610848;27;20190;-79
2023/01/20 11:13:35;;;;;;;12.37;11.03;;;4.70;97.10;;;;;;10609947;27;20297;-80
2023/01/20 11:18:37;;;;;;;10.57;9.67;;;4.70;97.70;;;;;;10628675;27;20194;-79
2023/01/20 11:23:41;;;;;;;8.43;7.83;;;4.70;97.10;;;;;;10629693;27;20260;-80
2023/01/20 11:28:49;;;;;;;10.27;8.30;;;4.80;98.40;;;;;;10630167;27;20199;-80
2023/01/20 11:33:57;;;;;;;8.97;7.70;;;4.80;98.80;;;;;;10630084;28;20704;-80
2023/01/20 11:38:59;;;;;;;8.80;7.63;;;4.90;98.50;;;;;;10628712;28;20233;-80
2023/01/20 11:44:06;;;;;;;7.97;7.17;;;5.10;96.60;;;;;;10611072;28;20219;-79
2023/01/20 11:49:20;;;;;;;7.77;6.97;;;5.20;97.10;;;;;;10611417;28;20193;-80
2023/01/20 11:54:25;;;;;;;8.93;8.13;;;5.20;96.70;;;;;;10631205;28;20218;-80
2023/01/20 11:59:33;;;;;;;7.47;6.77;;;5.30;97.40;;;;;;10612775;28;20210;-83
2023/01/20 12:04:56;;;;;;;6.87;5.90;;;5.30;96.90;;;;;;10610009;28;20230;-80
2023/01/20 12:10:04;;;;;;;8.17;7.30;;;5.40;96.10;;;;;;10628105;28;20446;-83
2023/01/20 12:15:16;;;;;;;13.40;10.73;;;5.40;95.80;;;;;;10579339;28;20706;-82
2023/01/20 12:20:27;;;;;;;5.80;5.13;;;5.30;95.80;;;;;;10606759;28;20202;-81
2023/01/20 12:25:34;;;;;;;8.67;7.50;;;5.30;95.80;;;;;;10592418;27;20222;-81
2023/01/20 12:30:59;;;;;;;9.60;6.80;;;5.20;95.50;;;;;;10581544;27;20289;-80
2023/01/20 12:36:32;;;;;;;5.70;5.20;;;5.40;94.90;;;;;;10631962;27;20440;-81
2023/01/20 12:41:48;;;;;;;6.97;6.23;;;5.40;95.80;;;;;;10576915;27;20226;-82
2023/01/20 12:47:02;;;;;;;5.57;5.03;;;5.40;95.80;;;;;;10613767;27;20575;-82
2023/01/20 12:52:26;;;;;;;6.07;5.57;;;5.40;95.90;;;;;;10615424;27;20222;-81
2023/01/20 12:57:42;;;;;;;6.17;5.57;;;5.50;96.10;;;;;;10617190;27;20234;-79
2023/01/20 13:03:14;;;;;;;5.87;5.30;;;5.70;95.90;;;;;;10615766;27;20214;-78
2023/01/20 13:08:22;;;;;;;7.30;6.70;;;5.80;94.90;;;;;;10614729;27;20554;-80
2023/01/20 13:13:39;;;;;;;8.70;5.83;;;5.80;95.10;;;;;;10634065;27;20214;-80
2023/01/20 13:19:02;;;;;;;8.13;7.33;;;5.80;95.10;;;;;;10611691;27;20203;-78
2023/01/20 13:24:06;;;;;;;7.00;6.40;;;5.80;95.20;;;;;;10608566;27;20741;-79
2023/01/20 13:29:21;;;;;;;7.30;6.63;;;6.00;95.50;;;;;;10585145;27;20232;-81
2023/01/20 13:34:40;;;;;;;6.20;5.70;;;6.20;94.90;;;;;;10610929;27;20290;-78
2023/01/20 13:39:45;;;;;;;5.30;4.90;;;6.20;94.40;;;;;;10630414;27;20300;-77
2023/01/20 13:45:17;;;;;;;6.73;4.93;;;6.20;93.80;;;;;;10611930;27;20650;-80
2023/01/20 13:50:24;;;;;;;8.53;6.80;;;6.20;94.10;;;;;;10611530;27;20633;-78
2023/01/20 13:55:30;;;;;;;7.20;6.50;;;6.10;94.10;;;;;;10588002;22;20634;-80
2023/01/20 14:00:33;;;;;;;6.97;6.17;;;6.10;94.30;;;;;;10561981;28;20215;-77
2023/01/20 14:05:36;;;;;;;6.93;6.30;;;6.10;94.60;;;;;;10579558;28;20227;-78
2023/01/20 14:10:38;;;;;;;7.20;6.50;;;6.10;94.70;;;;;;10541169;28;20206;-79
2023/01/20 14:15:42;;;;;;;16.13;12.37;;;6.00;94.80;;;;;;10486108;28;20726;-79
2023/01/20 14:20:59;;;;;;;5.93;5.43;;;6.00;95.00;;;;;;10540487;28;20247;-79
2023/01/20 14:26:11;;;;;;;6.50;5.00;;;6.00;93.90;;;;;;10516793;28;20715;-79
2023/01/20 14:31:17;;;;;;;6.53;5.83;;;6.00;94.60;;;;;;10558846;28;20264;-78
2023/01/20 14:36:21;;;;;;;6.60;5.67;;;6.00;93.30;;;;;;10539575;28;20273;-78
2023/01/20 14:41:30;;;;;;;6.10;5.17;;;6.00;93.80;;;;;;10559127;28;20220;-81
2023/01/20 14:46:36;;;;;;;6.67;5.80;;;6.10;93.20;;;;;;10576390;28;20277;-80
2023/01/20 14:51:38;;;;;;;5.22;4.75;;;6.00;94.20;;;;;;10572490;28;20191;-81
2023/01/20 14:56:46;;;;;;;5.93;5.43;;;6.20;94.70;;;;;;10518705;28;20305;-80
2023/01/20 15:01:55;;;;;;;5.47;5.07;;;6.20;93.10;;;;;;10547852;28;20254;-80
2023/01/20 15:06:58;;;;;;;9.83;7.93;;;6.00;91.90;;;;;;10502735;28;20247;-81
2023/01/20 15:12:41;;;;;;;10.87;8.30;;;5.90;92.40;;;;;;10545848;28;20200;-79
2023/01/20 15:18:14;;;;;;;11.10;8.17;;;5.70;92.70;;;;;;10483023;28;20270;-78
2023/01/20 15:23:20;;;;;;;6.15;5.53;;;5.60;92.40;;;;;;10543603;28;20235;-77
2023/01/20 15:28:29;;;;;;;4.10;3.83;;;5.50;92.80;;;;;;10536595;28;20192;-78
2023/01/20 15:33:33;;;;;;;4.33;4.00;;;5.30;92.80;;;;;;10542125;28;20650;-79
2023/01/20 15:38:35;;;;;;;5.20;4.80;;;5.00;93.20;;;;;;10545406;28;20605;-79
2023/01/20 15:43:37;;;;;;;6.23;3.93;;;4.80;93.80;;;;;;10567489;28;20228;-78
2023/01/20 15:48:40;;;;;;;5.33;4.60;;;4.70;93.50;;;;;;10539562;28;20223;-78
2023/01/20 15:53:43;;;;;;;5.23;4.87;;;4.40;93.90;;;;;;10522826;28;20225;-78
2023/01/20 15:58:46;;;;;;;7.00;5.30;;;4.20;94.50;;;;;;10542448;28;20203;-78
2023/01/20 16:03:51;;;;;;;7.43;6.67;;;4.00;94.20;;;;;;10559153;28;20258;-78
2023/01/20 16:08:53;;;;;;;5.33;4.70;;;3.90;94.10;;;;;;10547834;28;20268;-78
2023/01/20 16:13:56;;;;;;;7.20;6.50;;;3.70;94.40;;;;;;10549901;28;20222;-78
2023/01/20 16:19:00;;;;;;;6.47;5.87;;;3.60;94.70;;;;;;10555051;28;20621;-81
2023/01/20 16:24:04;;;;;;;8.73;6.80;;;3.50;94.70;;;;;;10539901;28;20261;-78
2023/01/20 16:29:08;;;;;;;10.63;7.20;;;3.50;94.60;;;;;;10567993;28;20197;-79
2023/01/20 16:34:12;;;;;;;8.17;7.47;;;3.40;94.90;;;;;;10536203;28;20242;-78
2023/01/20 16:39:14;;;;;;;7.53;6.83;;;3.40;94.70;;;;;;10537220;28;20214;-81
2023/01/20 16:44:16;;;;;;;15.98;9.25;;;3.30;94.50;;;;;;10546226;28;20216;-80
2023/01/20 16:49:19;;;;;;;26.67;17.88;;;3.40;95.00;;;;;;10560575;28;20202;-81
2023/01/20 16:54:21;;;;;;;13.63;8.47;;;3.50;95.10;;;;;;10567062;28;20233;-79
2023/01/20 16:59:24;;;;;;;9.37;7.87;;;3.50;94.90;;;;;;10586964;28;20268;-80
2023/01/20 17:04:28;;;;;;;13.33;10.37;;;3.40;95.10;;;;;;10566401;28;20223;-81
2023/01/20 17:09:30;;;;;;;9.93;8.93;;;3.20;95.30;;;;;;10546036;28;20250;-80
2023/01/20 17:14:32;;;;;;;11.00;9.73;;;3.20;95.00;;;;;;10554278;28;20215;-80
2023/01/20 17:19:36;;;;;;;7.90;7.10;;;3.10;95.30;;;;;;10584146;28;20250;-81
2023/01/20 17:24:39;;;;;;;8.63;6.80;;;3.00;95.20;;;;;;10538946;28;20219;-81
2023/01/20 17:29:41;;;;;;;9.10;6.87;;;3.00;95.00;;;;;;10549555;28;20229;-80
2023/01/20 17:34:44;;;;;;;8.43;7.33;;;3.00;95.10;;;;;;10540874;28;20303;-81
2023/01/20 17:39:46;;;;;;;8.33;7.43;;;2.90;95.20;;;;;;10524161;28;20614;-81
2023/01/20 17:44:48;;;;;;;12.82;9.10;;;2.90;95.20;;;;;;10532843;28;20223;-81
2023/01/20 17:49:52;;;;;;;15.50;12.00;;;3.10;94.70;;;;;;10524816;28;20237;-82
2023/01/20 17:54:54;;;;;;;17.60;13.77;;;3.00;94.90;;;;;;10541803;28;20219;-81
2023/01/20 17:59:56;;;;;;;15.60;12.80;;;2.90;94.80;;;;;;10555345;28;20200;-82
2023/01/20 18:04:59;;;;;;;17.90;16.00;;;2.80;95.20;;;;;;10538244;28;20730;-81
2023/01/20 18:10:01;;;;;;;21.10;16.80;;;2.80;95.80;;;;;;10534321;28;20228;-82
2023/01/20 18:15:04;;;;;;;14.70;13.17;;;2.80;96.00;;;;;;10555771;28;20251;-82
2023/01/20 18:20:09;;;;;;;13.03;11.63;;;2.80;96.00;;;;;;10536988;28;20193;-82
2023/01/20 18:25:11;;;;;;;11.77;10.53;;;2.90;95.50;;;;;;10530327;28;20315;-82
2023/01/20 18:30:14;;;;;;;10.50;8.57;;;2.90;95.00;;;;;;10554652;28;20610;-81
2023/01/20 18:35:18;;;;;;;9.77;8.87;;;2.80;94.60;;;;;;10586428;28;20283;-81
2023/01/20 18:40:20;;;;;;;11.10;10.20;;;2.70;95.10;;;;;;10546375;28;20206;-81
2023/01/20 18:45:22;;;;;;;10.10;9.00;;;2.60;94.80;;;;;;10503312;28;20231;-80
2023/01/20 18:50:25;;;;;;;9.57;8.60;;;2.60;94.70;;;;;;10533910;28;20204;-80
2023/01/20 18:55:29;;;;;;;11.73;10.63;;;2.50;95.00;;;;;;10552643;28;20289;-80
2023/01/20 19:00:31;;;;;;;17.30;12.30;;;2.50;94.70;;;;;;10561190;28;20310;-80
2023/01/20 19:05:34;;;;;;;10.13;9.00;;;2.40;95.50;;;;;;10559836;28;20315;-80
2023/01/20 19:10:36;;;;;;;10.83;9.73;;;2.40;95.00;;;;;;10572465;28;20210;-80
2023/01/20 19:15:39;;;;;;;17.13;9.80;;;2.40;95.30;;;;;;10580421;28;20219;-79
2023/01/20 19:20:42;;;;;;;11.23;10.23;;;2.40;95.00;;;;;;10549228;28;20211;-79
2023/01/20 19:25:44;;;;;;;10.70;9.80;;;2.30;95.70;;;;;;10535421;28;20245;-80
2023/01/20 19:30:46;;;;;;;11.90;10.50;;;2.40;95.50;;;;;;10539905;28;20202;-81
2023/01/20 19:35:50;;;;;;;11.03;9.90;;;2.50;95.10;;;;;;10515635;28;20679;-79
2023/01/20 19:40:52;;;;;;;10.53;9.53;;;2.50;95.10;;;;;;10536114;28;20219;-81
2023/01/20 19:45:54;;;;;;;10.07;9.27;;;2.40;94.70;;;;;;10526026;28;20311;-80
2023/01/20 19:51:01;;;;;;;11.07;10.07;;;2.30;95.30;;;;;;10518648;28;20210;-79
2023/01/20 19:56:05;;;;;;;11.37;9.90;;;2.20;95.40;;;;;;10544498;22;20277;-80
2023/01/20 20:01:08;;;;;;;12.20;11.00;;;2.10;95.60;;;;;;10526562;28;20684;-79
2023/01/20 20:06:24;;;;;;;12.18;10.38;;;2.10;95.50;;;;;;10494717;28;20243;-79
2023/01/20 20:11:26;;;;;;;12.33;10.13;;;2.30;95.30;;;;;;10545954;28;20629;-79
2023/01/20 20:16:30;;;;;;;10.70;9.70;;;2.30;95.10;;;;;;10529447;28;20714;-79
2023/01/20 20:21:34;;;;;;;10.43;9.40;;;2.20;95.60;;;;;;10522447;28;20275;-79
2023/01/20 20:26:37;;;;;;;10.13;9.23;;;2.20;95.70;;;;;;10501922;28;20258;-80
2023/01/20 20:31:40;;;;;;;10.60;9.33;;;2.10;95.40;;;;;;10521024;28;20207;-80
2023/01/20 20:36:44;;;;;;;9.20;8.30;;;2.10;95.30;;;;;;10546743;28;20235;-81
2023/01/20 20:41:46;;;;;;;7.97;7.18;;;2.10;95.40;;;;;;10529355;28;20690;-78
2023/01/20 20:46:48;;;;;;;9.87;8.30;;;2.20;95.70;;;;;;10486851;28;20213;-81
2023/01/20 20:51:52;;;;;;;10.00;9.00;;;2.30;94.90;;;;;;10513310;28;20192;-80
2023/01/20 20:56:57;;;;;;;9.90;9.00;;;2.20;94.50;;;;;;10521224;28;20269;-80
2023/01/20 21:01:59;;;;;;;12.47;11.27;;;2.10;94.50;;;;;;10512468;28;20279;-80
2023/01/20 21:07:03;;;;;;;12.57;10.80;;;2.00;95.30;;;;;;10555297;28;20215;-80
2023/01/20 21:12:05;;;;;;;12.77;11.57;;;2.00;95.70;;;;;;10535639;28;20231;-79
2023/01/20 21:17:07;;;;;;;13.43;11.40;;;2.10;96.10;;;;;;10478653;28;20688;-80
2023/01/20 21:22:11;;;;;;;14.73;13.20;;;2.10;96.90;;;;;;10521495;28;20306;-80
2023/01/20 21:27:13;;;;;;;16.43;14.20;;;2.30;96.10;;;;;;10510508;28;20348;-82
2023/01/20 21:32:16;;;;;;;15.27;13.77;;;2.40;95.50;;;;;;10523372;28;20253;-80
2023/01/20 21:37:20;;;;;;;13.33;11.97;;;2.60;94.70;;;;;;10510376;28;20616;-82
2023/01/20 21:42:23;;;;;;;11.13;10.13;;;2.60;94.10;;;;;;10499392;28;20248;-79
2023/01/20 21:47:25;;;;;;;13.27;11.90;;;2.70;93.90;;;;;;10513615;28;20224;-80
2023/01/20 21:52:44;;;;;;;11.80;10.63;;;2.80;94.10;;;;;;10516824;28;20199;-80
2023/01/20 21:57:46;;;;;;;10.23;9.13;;;2.80;93.20;;;;;;10523792;28;20293;-80
2023/01/20 22:02:48;;;;;;;9.00;8.20;;;2.80;94.30;;;;;;10523175;28;20597;-80
2023/01/20 22:07:51;;;;;;;10.83;9.63;;;2.90;94.50;;;;;;10533967;28;20302;-79
2023/01/20 22:12:54;;;;;;;10.37;9.30;;;3.00;94.50;;;;;;10531024;28;20674;-79
2023/01/20 22:17:57;;;;;;;17.07;11.87;;;3.20;94.80;;;;;;10516642;28;20245;-80
2023/01/20 22:23:01;;;;;;;12.23;10.97;;;3.30;94.80;;;;;;10492663;28;20278;-79
2023/01/20 22:28:04;;;;;;;11.67;10.57;;;3.30;94.40;;;;;;10486964;28;20244;-80
2023/01/20 22:33:07;;;;;;;11.53;10.43;;;3.30;93.70;;;;;;10523696;28;20207;-79
2023/01/20 22:38:10;;;;;;;11.77;10.68;;;3.30;93.70;;;;;;10494732;28;20226;-80
2023/01/20 22:43:12;;;;;;;12.23;10.98;;;3.50;92.90;;;;;;10497565;28;20223;-79
2023/01/20 22:48:15;;;;;;;11.43;10.23;;;3.60;92.10;;;;;;10540562;28;20211;-80
2023/01/20 22:53:18;;;;;;;11.57;10.47;;;3.50;92.70;;;;;;10486718;28;20197;-81
2023/01/20 22:58:20;;;;;;;12.43;11.33;;;3.50;93.10;;;;;;10476653;28;20327;-81
2023/01/20 23:03:22;;;;;;;12.70;11.50;;;3.40;92.80;;;;;;10516356;28;20223;-81
2023/01/20 23:08:27;;;;;;;12.47;11.30;;;3.30;91.70;;;;;;10479761;28;20219;-80
2023/01/20 23:13:29;;;;;;;13.93;12.63;;;3.30;91.70;;;;;;10530288;28;20223;-79
2023/01/20 23:18:32;;;;;;;14.07;12.87;;;3.20;92.60;;;;;;10514533;28;20225;-80
2023/01/20 23:23:35;;;;;;;13.70;12.27;;;3.20;91.50;;;;;;10535047;28;20729;-79
2023/01/20 23:28:37;;;;;;;15.53;13.60;;;3.20;91.30;;;;;;10566135;28;20430;-79
2023/01/20 23:33:44;;;;;;;14.90;12.83;;;3.00;92.00;;;;;;10555055;28;20191;-79
2023/01/20 23:38:48;;;;;;;14.80;13.30;;;2.80;91.90;;;;;;10543505;28;20199;-81
2023/01/20 23:43:50;;;;;;;14.50;13.17;;;2.70;92.80;;;;;;10478419;28;20225;-79
2023/01/20 23:48:52;;;;;;;14.13;12.73;;;2.50;93.00;;;;;;10530530;28;20219;-77
2023/01/20 23:53:57;;;;;;;13.70;12.50;;;2.40;93.10;;;;;;10488085;28;20613;-78
2023/01/20 23:58:59;;;;;;;13.27;11.97;;;2.40;93.10;;;;;;10478098;28;20207;-78
